sensor_id;sensor_type;location;lat;lon;timestamp;temperature;humidity
11047;DHT22;5576;50.008;10.596;2023-06-04T00:02:04;14.90;97.10
11047;DHT22;5576;50.008;10.596;2023-06-04T00:04:30;15.00;97.40
11047;DHT22;5576;50.008;10.596;2023-06-04T00:06:55;15.10;96.40
11047;DHT22;5576;50.008;10.596;2023-06-04T00:09:21;14.10;95.90
11047;DHT22;5576;50.008;10.596;2023-06-04T00:11:47;14.90;96.50
11047;DHT22;5576;50.008;10.596;2023-06-04T00:14:13;15.10;96.60
11047;DHT22;5576;50.008;10.596;2023-06-04T00:16:40;18.00;97.00
11047;DHT22;5576;50.008;10.596;2023-06-04T00:19:06;16.60;96.80
11047;DHT22;5576;50.008;10.596;2023-06-04T00:21:32;15.10;96.70
11047;DHT22;5576;50.008;10.596;2023-06-04T00:23:59;16.40;96.70
11047;DHT22;5576;50.008;10.596;2023-06-04T00:26:24;15.20;96.50
11047;DHT22;5576;50.008;10.596;2023-06-04T00:28:51;13.50;96.10
11047;DHT22;5576;50.008;10.596;2023-06-04T00:31:16;15.20;97.00
11047;DHT22;5576;50.008;10.596;2023-06-04T00:33:42;15.50;96.80
11047;DHT22;5576;50.008;10.596;2023-06-04T00:36:09;15.10;96.70
11047;DHT22;5576;50.008;10.596;2023-06-04T00:38:35;15.00;97.90
11047;DHT22;5576;50.008;10.596;2023-06-04T00:41:01;14.90;98.80
11047;DHT22;5576;50.008;10.596;2023-06-04T00:43:26;12.80;98.60
11047;DHT22;5576;50.008;10.596;2023-06-04T00:45:53;12.00;98.70
11047;DHT22;5576;50.008;10.596;2023-06-04T00:48:20;14.80;99.90
11047;DHT22;5576;50.008;10.596;2023-06-04T00:50:47;14.50;99.90
11047;DHT22;5576;50.008;10.596;2023-06-04T00:53:12;14.40;99.90
11047;DHT22;5576;50.008;10.596;2023-06-04T00:55:38;14.20;99.90
11047;DHT22;5576;50.008;10.596;2023-06-04T00:58:04;14.20;99.90
11047;DHT22;5576;50.008;10.596;2023-06-04T01:00:30;14.00;99.90
11047;DHT22;5576;50.008;10.596;2023-06-04T01:02:58;13.90;99.90
11047;DHT22;5576;50.008;10.596;2023-06-04T01:07:58;13.60;99.90
11047;DHT22;5576;50.008;10.596;2023-06-04T01:10:24;11.00;99.90
11047;DHT22;5576;50.008;10.596;2023-06-04T01:12:49;13.60;99.90
11047;DHT22;5576;50.008;10.596;2023-06-04T01:15:15;13.50;99.90
11047;DHT22;5576;50.008;10.596;2023-06-04T01:17:44;13.50;99.90
11047;DHT22;5576;50.008;10.596;2023-06-04T01:20:31;13.30;99.90
11047;DHT22;5576;50.008;10.596;2023-06-04T01:23:25;12.90;99.90
11047;DHT22;5576;50.008;10.596;2023-06-04T01:26:01;12.50;99.90
11047;DHT22;5576;50.008;10.596;2023-06-04T01:28:30;12.60;99.90
11047;DHT22;5576;50.008;10.596;2023-06-04T01:30:56;12.50;99.90
11047;DHT22;5576;50.008;10.596;2023-06-04T01:33:22;12.50;99.90
11047;DHT22;5576;50.008;10.596;2023-06-04T01:35:49;12.30;99.90
11047;DHT22;5576;50.008;10.596;2023-06-04T01:38:15;11.50;99.90
11047;DHT22;5576;50.008;10.596;2023-06-04T01:40:41;12.50;99.90
11047;DHT22;5576;50.008;10.596;2023-06-04T01:43:07;12.40;99.90
11047;DHT22;5576;50.008;10.596;2023-06-04T01:45:32;12.30;99.90
11047;DHT22;5576;50.008;10.596;2023-06-04T01:48:01;12.30;99.90
11047;DHT22;5576;50.008;10.596;2023-06-04T01:50:27;12.10;99.90
11047;DHT22;5576;50.008;10.596;2023-06-04T01:52:53;11.90;99.90
11047;DHT22;5576;50.008;10.596;2023-06-04T01:55:20;11.80;99.90
11047;DHT22;5576;50.008;10.596;2023-06-04T01:57:46;9.00;99.90
11047;DHT22;5576;50.008;10.596;2023-06-04T02:00:14;8.30;99.90
11047;DHT22;5576;50.008;10.596;2023-06-04T02:02:42;11.70;99.90
11047;DHT22;5576;50.008;10.596;2023-06-04T02:05:09;11.60;99.90
11047;DHT22;5576;50.008;10.596;2023-06-04T02:07:36;11.60;99.90
11047;DHT22;5576;50.008;10.596;2023-06-04T02:10:08;11.60;99.90
11047;DHT22;5576;50.008;10.596;2023-06-04T02:12:39;11.50;99.90
11047;DHT22;5576;50.008;10.596;2023-06-04T02:15:06;11.40;99.90
11047;DHT22;5576;50.008;10.596;2023-06-04T02:17:33;14.90;99.90
11047;DHT22;5576;50.008;10.596;2023-06-04T02:20:03;12.00;99.90
11047;DHT22;5576;50.008;10.596;2023-06-04T02:22:30;11.50;99.90
11047;DHT22;5576;50.008;10.596;2023-06-04T02:24:55;15.10;99.90
11047;DHT22;5576;50.008;10.596;2023-06-04T02:27:21;11.50;99.90
11047;DHT22;5576;50.008;10.596;2023-06-04T02:29:47;11.60;99.90
11047;DHT22;5576;50.008;10.596;2023-06-04T02:32:13;11.50;99.90
11047;DHT22;5576;50.008;10.596;2023-06-04T02:34:39;11.50;99.90
11047;DHT22;5576;50.008;10.596;2023-06-04T02:37:05;11.50;99.90
11047;DHT22;5576;50.008;10.596;2023-06-04T02:39:31;11.50;99.90
11047;DHT22;5576;50.008;10.596;2023-06-04T02:41:56;11.50;99.90
11047;DHT22;5576;50.008;10.596;2023-06-04T02:44:22;8.50;99.90
11047;DHT22;5576;50.008;10.596;2023-06-04T02:46:48;11.40;99.90
11047;DHT22;5576;50.008;10.596;2023-06-04T02:49:13;10.30;99.90
11047;DHT22;5576;50.008;10.596;2023-06-04T02:51:40;11.30;99.90
11047;DHT22;5576;50.008;10.596;2023-06-04T02:54:06;11.30;99.90
11047;DHT22;5576;50.008;10.596;2023-06-04T02:56:31;14.60;99.90
11047;DHT22;5576;50.008;10.596;2023-06-04T02:58:57;11.40;99.90
11047;DHT22;5576;50.008;10.596;2023-06-04T03:01:24;11.20;99.90
11047;DHT22;5576;50.008;10.596;2023-06-04T03:03:53;10.40;99.90
11047;DHT22;5576;50.008;10.596;2023-06-04T03:06:20;10.80;99.90
11047;DHT22;5576;50.008;10.596;2023-06-04T03:08:47;11.40;99.90
11047;DHT22;5576;50.008;10.596;2023-06-04T03:11:13;8.80;99.90
11047;DHT22;5576;50.008;10.596;2023-06-04T03:13:39;10.30;99.90
11047;DHT22;5576;50.008;10.596;2023-06-04T03:16:05;10.30;99.90
11047;DHT22;5576;50.008;10.596;2023-06-04T03:18:41;10.40;99.90
11047;DHT22;5576;50.008;10.596;2023-06-04T03:21:07;10.50;99.90
11047;DHT22;5576;50.008;10.596;2023-06-04T03:23:35;10.60;99.90
11047;DHT22;5576;50.008;10.596;2023-06-04T03:26:03;13.70;99.90
11047;DHT22;5576;50.008;10.596;2023-06-04T03:28:29;10.60;99.90
11047;DHT22;5576;50.008;10.596;2023-06-04T03:30:55;10.70;99.90
11047;DHT22;5576;50.008;10.596;2023-06-04T03:33:23;10.70;99.90
11047;DHT22;5576;50.008;10.596;2023-06-04T03:35:51;10.60;99.90
11047;DHT22;5576;50.008;10.596;2023-06-04T03:38:19;10.60;99.90
11047;DHT22;5576;50.008;10.596;2023-06-04T03:40:46;9.40;99.90
11047;DHT22;5576;50.008;10.596;2023-06-04T03:43:13;10.50;99.90
11047;DHT22;5576;50.008;10.596;2023-06-04T03:45:39;10.40;99.90
11047;DHT22;5576;50.008;10.596;2023-06-04T03:48:06;10.40;99.90
11047;DHT22;5576;50.008;10.596;2023-06-04T03:50:35;9.40;99.90
11047;DHT22;5576;50.008;10.596;2023-06-04T03:53:01;10.50;99.90
11047;DHT22;5576;50.008;10.596;2023-06-04T03:55:27;10.30;99.90
11047;DHT22;5576;50.008;10.596;2023-06-04T03:57:53;10.30;99.90
11047;DHT22;5576;50.008;10.596;2023-06-04T04:00:19;10.40;99.90
11047;DHT22;5576;50.008;10.596;2023-06-04T04:02:49;10.50;99.90
11047;DHT22;5576;50.008;10.596;2023-06-04T04:05:21;10.60;99.90
11047;DHT22;5576;50.008;10.596;2023-06-04T04:07:48;10.60;99.90
11047;DHT22;5576;50.008;10.596;2023-06-04T04:10:16;10.70;99.90
11047;DHT22;5576;50.008;10.596;2023-06-04T04:12:41;10.70;99.90
11047;DHT22;5576;50.008;10.596;2023-06-04T04:15:07;8.90;99.90
11047;DHT22;5576;50.008;10.596;2023-06-04T04:17:34;10.70;99.90
11047;DHT22;5576;50.008;10.596;2023-06-04T04:20:00;10.90;99.90
11047;DHT22;5576;50.008;10.596;2023-06-04T04:22:27;10.70;99.90
11047;DHT22;5576;50.008;10.596;2023-06-04T04:24:52;10.50;99.90
11047;DHT22;5576;50.008;10.596;2023-06-04T04:27:18;10.40;99.90
11047;DHT22;5576;50.008;10.596;2023-06-04T04:29:44;10.40;99.90
11047;DHT22;5576;50.008;10.596;2023-06-04T04:32:13;10.50;99.90
11047;DHT22;5576;50.008;10.596;2023-06-04T04:34:52;10.50;99.90
11047;DHT22;5576;50.008;10.596;2023-06-04T04:37:20;10.60;99.90
11047;DHT22;5576;50.008;10.596;2023-06-04T04:39:49;10.60;99.90
11047;DHT22;5576;50.008;10.596;2023-06-04T04:42:19;12.40;99.90
11047;DHT22;5576;50.008;10.596;2023-06-04T04:44:47;10.90;99.90
11047;DHT22;5576;50.008;10.596;2023-06-04T04:47:15;10.80;99.90
11047;DHT22;5576;50.008;10.596;2023-06-04T04:49:42;12.40;99.90
11047;DHT22;5576;50.008;10.596;2023-06-04T04:52:08;9.00;99.90
11047;DHT22;5576;50.008;10.596;2023-06-04T04:54:36;11.20;99.90
11047;DHT22;5576;50.008;10.596;2023-06-04T04:57:02;11.20;99.90
11047;DHT22;5576;50.008;10.596;2023-06-04T04:59:28;9.40;99.90
11047;DHT22;5576;50.008;10.596;2023-06-04T05:01:56;11.20;99.90
11047;DHT22;5576;50.008;10.596;2023-06-04T05:04:22;11.40;99.90
11047;DHT22;5576;50.008;10.596;2023-06-04T05:06:48;11.40;99.90
11047;DHT22;5576;50.008;10.596;2023-06-04T05:09:14;11.30;99.90
11047;DHT22;5576;50.008;10.596;2023-06-04T05:11:41;11.20;99.90
11047;DHT22;5576;50.008;10.596;2023-06-04T05:14:07;11.20;99.90
11047;DHT22;5576;50.008;10.596;2023-06-04T05:16:34;11.10;99.90
11047;DHT22;5576;50.008;10.596;2023-06-04T05:19:01;11.10;99.90
11047;DHT22;5576;50.008;10.596;2023-06-04T05:21:32;11.10;99.90
11047;DHT22;5576;50.008;10.596;2023-06-04T05:24:03;14.10;99.90
11047;DHT22;5576;50.008;10.596;2023-06-04T05:26:33;11.20;99.90
11047;DHT22;5576;50.008;10.596;2023-06-04T05:29:04;13.80;99.90
11047;DHT22;5576;50.008;10.596;2023-06-04T05:31:33;11.50;99.90
11047;DHT22;5576;50.008;10.596;2023-06-04T05:34:02;13.90;99.90
11047;DHT22;5576;50.008;10.596;2023-06-04T05:36:31;11.70;99.90
11047;DHT22;5576;50.008;10.596;2023-06-04T05:39:00;11.80;99.90
11047;DHT22;5576;50.008;10.596;2023-06-04T05:41:33;11.80;99.90
11047;DHT22;5576;50.008;10.596;2023-06-04T05:44:00;11.30;99.90
11047;DHT22;5576;50.008;10.596;2023-06-04T05:46:27;12.40;99.90
11047;DHT22;5576;50.008;10.596;2023-06-04T05:48:53;12.20;99.90
11047;DHT22;5576;50.008;10.596;2023-06-04T05:51:20;12.30;99.90
11047;DHT22;5576;50.008;10.596;2023-06-04T05:53:47;12.40;99.90
11047;DHT22;5576;50.008;10.596;2023-06-04T05:56:13;12.50;99.90
11047;DHT22;5576;50.008;10.596;2023-06-04T05:58:39;12.50;99.90
11047;DHT22;5576;50.008;10.596;2023-06-04T06:01:06;14.10;99.90
11047;DHT22;5576;50.008;10.596;2023-06-04T06:03:32;12.70;99.90
11047;DHT22;5576;50.008;10.596;2023-06-04T06:05:58;12.90;99.90
11047;DHT22;5576;50.008;10.596;2023-06-04T06:08:26;12.90;99.90
11047;DHT22;5576;50.008;10.596;2023-06-04T06:10:51;12.90;99.90
11047;DHT22;5576;50.008;10.596;2023-06-04T06:13:17;13.00;99.90
11047;DHT22;5576;50.008;10.596;2023-06-04T06:15:45;13.30;99.90
11047;DHT22;5576;50.008;10.596;2023-06-04T06:18:12;13.30;99.90
11047;DHT22;5576;50.008;10.596;2023-06-04T06:20:37;13.50;99.90
11047;DHT22;5576;50.008;10.596;2023-06-04T06:23:07;13.50;99.90
11047;DHT22;5576;50.008;10.596;2023-06-04T06:25:34;16.90;99.90
11047;DHT22;5576;50.008;10.596;2023-06-04T06:28:06;16.60;99.90
11047;DHT22;5576;50.008;10.596;2023-06-04T06:30:33;13.80;99.90
11047;DHT22;5576;50.008;10.596;2023-06-04T06:32:59;16.90;99.90
11047;DHT22;5576;50.008;10.596;2023-06-04T06:35:25;15.10;99.90
11047;DHT22;5576;50.008;10.596;2023-06-04T06:37:51;14.10;99.90
11047;DHT22;5576;50.008;10.596;2023-06-04T06:40:16;14.10;99.90
11047;DHT22;5576;50.008;10.596;2023-06-04T06:42:42;14.10;99.90
11047;DHT22;5576;50.008;10.596;2023-06-04T06:45:08;14.30;99.90
11047;DHT22;5576;50.008;10.596;2023-06-04T06:47:34;14.30;99.90
11047;DHT22;5576;50.008;10.596;2023-06-04T06:50:00;14.40;99.90
11047;DHT22;5576;50.008;10.596;2023-06-04T06:52:25;14.60;99.90
11047;DHT22;5576;50.008;10.596;2023-06-04T06:54:51;14.80;99.90
11047;DHT22;5576;50.008;10.596;2023-06-04T06:57:18;14.80;99.90
11047;DHT22;5576;50.008;10.596;2023-06-04T06:59:43;15.00;99.90
11047;DHT22;5576;50.008;10.596;2023-06-04T07:02:09;15.00;99.90
11047;DHT22;5576;50.008;10.596;2023-06-04T07:04:36;15.10;99.90
11047;DHT22;5576;50.008;10.596;2023-06-04T07:07:01;15.10;99.90
11047;DHT22;5576;50.008;10.596;2023-06-04T07:09:28;15.10;99.90
11047;DHT22;5576;50.008;10.596;2023-06-04T07:11:54;15.10;99.90
11047;DHT22;5576;50.008;10.596;2023-06-04T07:14:20;15.20;99.90
11047;DHT22;5576;50.008;10.596;2023-06-04T07:16:46;15.40;99.90
11047;DHT22;5576;50.008;10.596;2023-06-04T07:19:11;15.60;99.90
11047;DHT22;5576;50.008;10.596;2023-06-04T07:21:37;15.60;99.90
11047;DHT22;5576;50.008;10.596;2023-06-04T07:24:03;15.60;99.90
11047;DHT22;5576;50.008;10.596;2023-06-04T07:26:28;16.90;99.90
11047;DHT22;5576;50.008;10.596;2023-06-04T07:28:56;15.70;99.90
11047;DHT22;5576;50.008;10.596;2023-06-04T07:31:22;15.80;99.90
11047;DHT22;5576;50.008;10.596;2023-06-04T07:33:48;14.40;99.90
11047;DHT22;5576;50.008;10.596;2023-06-04T07:36:14;16.70;99.90
11047;DHT22;5576;50.008;10.596;2023-06-04T07:38:40;16.50;99.90
11047;DHT22;5576;50.008;10.596;2023-06-04T07:41:05;16.70;99.90
11047;DHT22;5576;50.008;10.596;2023-06-04T07:43:33;16.80;99.90
11047;DHT22;5576;50.008;10.596;2023-06-04T07:45:59;18.80;99.90
11047;DHT22;5576;50.008;10.596;2023-06-04T07:48:24;17.20;99.90
11047;DHT22;5576;50.008;10.596;2023-06-04T07:50:57;17.40;99.90
11047;DHT22;5576;50.008;10.596;2023-06-04T07:53:22;17.50;99.90
11047;DHT22;5576;50.008;10.596;2023-06-04T07:55:48;17.80;99.90
11047;DHT22;5576;50.008;10.596;2023-06-04T07:58:14;18.00;99.90
11047;DHT22;5576;50.008;10.596;2023-06-04T08:00:40;18.00;99.90
11047;DHT22;5576;50.008;10.596;2023-06-04T08:03:06;17.90;99.90
11047;DHT22;5576;50.008;10.596;2023-06-04T08:05:31;18.10;99.90
11047;DHT22;5576;50.008;10.596;2023-06-04T08:07:57;18.10;99.90
11047;DHT22;5576;50.008;10.596;2023-06-04T08:10:23;18.30;99.90
11047;DHT22;5576;50.008;10.596;2023-06-04T08:12:48;18.40;99.90
11047;DHT22;5576;50.008;10.596;2023-06-04T08:15:14;18.70;99.90
11047;DHT22;5576;50.008;10.596;2023-06-04T08:17:39;18.60;99.90
11047;DHT22;5576;50.008;10.596;2023-06-04T08:20:06;18.80;99.90
11047;DHT22;5576;50.008;10.596;2023-06-04T08:22:32;18.90;99.90
11047;DHT22;5576;50.008;10.596;2023-06-04T08:24:57;19.00;99.90
11047;DHT22;5576;50.008;10.596;2023-06-04T08:27:23;18.00;99.90
11047;DHT22;5576;50.008;10.596;2023-06-04T08:29:49;19.20;99.90
11047;DHT22;5576;50.008;10.596;2023-06-04T08:32:14;19.30;99.90
11047;DHT22;5576;50.008;10.596;2023-06-04T08:34:40;19.30;99.90
11047;DHT22;5576;50.008;10.596;2023-06-04T08:37:06;19.50;99.90
11047;DHT22;5576;50.008;10.596;2023-06-04T08:39:32;19.60;99.90
11047;DHT22;5576;50.008;10.596;2023-06-04T08:42:01;23.00;99.90
11047;DHT22;5576;50.008;10.596;2023-06-04T08:44:29;19.90;99.90
11047;DHT22;5576;50.008;10.596;2023-06-04T08:47:02;20.00;99.90
11047;DHT22;5576;50.008;10.596;2023-06-04T08:49:31;20.20;99.90
11047;DHT22;5576;50.008;10.596;2023-06-04T08:51:59;20.30;99.90
11047;DHT22;5576;50.008;10.596;2023-06-04T08:54:26;20.10;99.90
11047;DHT22;5576;50.008;10.596;2023-06-04T08:56:52;17.90;97.90
11047;DHT22;5576;50.008;10.596;2023-06-04T08:59:18;16.80;98.00
11047;DHT22;5576;50.008;10.596;2023-06-04T09:01:44;20.40;97.80
11047;DHT22;5576;50.008;10.596;2023-06-04T09:04:10;20.40;98.90
11047;DHT22;5576;50.008;10.596;2023-06-04T09:06:39;19.90;97.10
11047;DHT22;5576;50.008;10.596;2023-06-04T09:09:09;21.60;96.90
11047;DHT22;5576;50.008;10.596;2023-06-04T09:11:39;20.90;97.00
11047;DHT22;5576;50.008;10.596;2023-06-04T09:14:08;21.10;96.90
11047;DHT22;5576;50.008;10.596;2023-06-04T09:16:50;21.10;95.30
11047;DHT22;5576;50.008;10.596;2023-06-04T09:19:17;21.10;96.10
11047;DHT22;5576;50.008;10.596;2023-06-04T09:21:51;21.10;96.60
11047;DHT22;5576;50.008;10.596;2023-06-04T09:24:19;21.20;95.90
11047;DHT22;5576;50.008;10.596;2023-06-04T09:26:44;19.10;95.10
11047;DHT22;5576;50.008;10.596;2023-06-04T09:29:10;21.50;94.90
11047;DHT22;5576;50.008;10.596;2023-06-04T09:31:36;24.50;96.70
11047;DHT22;5576;50.008;10.596;2023-06-04T09:34:04;21.70;95.50
11047;DHT22;5576;50.008;10.596;2023-06-04T09:36:33;21.90;95.80
11047;DHT22;5576;50.008;10.596;2023-06-04T09:38:58;22.00;95.80
11047;DHT22;5576;50.008;10.596;2023-06-04T09:41:25;22.00;94.00
11047;DHT22;5576;50.008;10.596;2023-06-04T09:43:59;22.10;93.50
11047;DHT22;5576;50.008;10.596;2023-06-04T09:46:28;22.10;92.80
11047;DHT22;5576;50.008;10.596;2023-06-04T09:49:00;22.10;93.70
11047;DHT22;5576;50.008;10.596;2023-06-04T09:51:26;22.10;93.10
11047;DHT22;5576;50.008;10.596;2023-06-04T09:53:55;22.20;93.00
11047;DHT22;5576;50.008;10.596;2023-06-04T09:56:22;22.00;93.20
11047;DHT22;5576;50.008;10.596;2023-06-04T09:58:49;22.30;93.50
11047;DHT22;5576;50.008;10.596;2023-06-04T10:01:15;21.10;93.10
11047;DHT22;5576;50.008;10.596;2023-06-04T10:03:46;22.30;93.40
11047;DHT22;5576;50.008;10.596;2023-06-04T10:06:15;22.20;92.90
11047;DHT22;5576;50.008;10.596;2023-06-04T10:08:42;22.30;92.80
11047;DHT22;5576;50.008;10.596;2023-06-04T10:11:09;22.40;92.00
11047;DHT22;5576;50.008;10.596;2023-06-04T10:13:52;22.50;91.80
11047;DHT22;5576;50.008;10.596;2023-06-04T10:16:19;22.50;92.60
11047;DHT22;5576;50.008;10.596;2023-06-04T10:18:46;22.60;92.60
11047;DHT22;5576;50.008;10.596;2023-06-04T10:21:13;22.60;92.10
11047;DHT22;5576;50.008;10.596;2023-06-04T10:23:40;22.70;92.10
11047;DHT22;5576;50.008;10.596;2023-06-04T10:26:13;23.10;90.90
11047;DHT22;5576;50.008;10.596;2023-06-04T10:28:41;23.10;89.50
11047;DHT22;5576;50.008;10.596;2023-06-04T10:31:09;23.00;91.50
11047;DHT22;5576;50.008;10.596;2023-06-04T10:33:35;23.30;90.90
11047;DHT22;5576;50.008;10.596;2023-06-04T10:36:17;23.20;89.50
11047;DHT22;5576;50.008;10.596;2023-06-04T10:38:46;23.20;90.30
11047;DHT22;5576;50.008;10.596;2023-06-04T10:41:14;19.80;88.80
11047;DHT22;5576;50.008;10.596;2023-06-04T10:43:45;23.50;88.40
11047;DHT22;5576;50.008;10.596;2023-06-04T10:46:12;23.70;86.70
11047;DHT22;5576;50.008;10.596;2023-06-04T10:51:15;23.60;84.00
11047;DHT22;5576;50.008;10.596;2023-06-04T10:53:41;23.50;86.00
11047;DHT22;5576;50.008;10.596;2023-06-04T10:56:06;23.60;86.50
11047;DHT22;5576;50.008;10.596;2023-06-04T10:58:33;23.60;85.70
11047;DHT22;5576;50.008;10.596;2023-06-04T11:00:59;23.50;86.40
11047;DHT22;5576;50.008;10.596;2023-06-04T11:03:35;23.70;86.60
11047;DHT22;5576;50.008;10.596;2023-06-04T11:06:01;24.50;83.60
11047;DHT22;5576;50.008;10.596;2023-06-04T11:08:29;24.10;87.00
11047;DHT22;5576;50.008;10.596;2023-06-04T11:10:55;23.90;84.60
11047;DHT22;5576;50.008;10.596;2023-06-04T11:13:24;25.10;88.40
11047;DHT22;5576;50.008;10.596;2023-06-04T11:15:51;24.30;86.90
11047;DHT22;5576;50.008;10.596;2023-06-04T11:18:18;24.30;84.00
11047;DHT22;5576;50.008;10.596;2023-06-04T11:20:46;24.20;85.80
11047;DHT22;5576;50.008;10.596;2023-06-04T11:23:13;24.20;85.20
11047;DHT22;5576;50.008;10.596;2023-06-04T11:25:39;24.60;84.90
11047;DHT22;5576;50.008;10.596;2023-06-04T11:28:04;24.70;82.20
11047;DHT22;5576;50.008;10.596;2023-06-04T11:30:30;24.80;81.00
11047;DHT22;5576;50.008;10.596;2023-06-04T11:33:04;24.60;81.80
11047;DHT22;5576;50.008;10.596;2023-06-04T11:35:31;24.90;79.80
11047;DHT22;5576;50.008;10.596;2023-06-04T11:37:58;24.90;80.50
11047;DHT22;5576;50.008;10.596;2023-06-04T11:40:24;24.90;78.50
11047;DHT22;5576;50.008;10.596;2023-06-04T11:42:52;25.00;80.20
11047;DHT22;5576;50.008;10.596;2023-06-04T11:45:19;25.30;76.80
11047;DHT22;5576;50.008;10.596;2023-06-04T11:47:47;25.30;79.50
11047;DHT22;5576;50.008;10.596;2023-06-04T11:50:13;25.40;77.80
11047;DHT22;5576;50.008;10.596;2023-06-04T11:52:39;25.40;76.80
11047;DHT22;5576;50.008;10.596;2023-06-04T11:55:08;25.40;73.70
11047;DHT22;5576;50.008;10.596;2023-06-04T11:57:35;25.30;74.40
11047;DHT22;5576;50.008;10.596;2023-06-04T12:00:01;25.30;78.50
11047;DHT22;5576;50.008;10.596;2023-06-04T12:02:33;25.40;76.00
11047;DHT22;5576;50.008;10.596;2023-06-04T12:04:59;25.30;75.50
11047;DHT22;5576;50.008;10.596;2023-06-04T12:07:24;25.30;76.60
11047;DHT22;5576;50.008;10.596;2023-06-04T12:09:50;23.20;75.80
11047;DHT22;5576;50.008;10.596;2023-06-04T12:12:21;25.60;76.50
11047;DHT22;5576;50.008;10.596;2023-06-04T12:14:57;25.70;72.90
11047;DHT22;5576;50.008;10.596;2023-06-04T12:17:23;27.30;75.00
11047;DHT22;5576;50.008;10.596;2023-06-04T12:19:50;25.70;75.30
11047;DHT22;5576;50.008;10.596;2023-06-04T12:22:16;24.40;70.80
11047;DHT22;5576;50.008;10.596;2023-06-04T12:24:51;25.70;74.60
11047;DHT22;5576;50.008;10.596;2023-06-04T12:27:23;23.60;73.10
11047;DHT22;5576;50.008;10.596;2023-06-04T12:30:02;25.80;72.40
11047;DHT22;5576;50.008;10.596;2023-06-04T12:32:28;25.70;71.60
11047;DHT22;5576;50.008;10.596;2023-06-04T12:34:55;25.90;71.50
11047;DHT22;5576;50.008;10.596;2023-06-04T12:37:22;25.90;71.90
11047;DHT22;5576;50.008;10.596;2023-06-04T12:39:48;26.10;72.00
11047;DHT22;5576;50.008;10.596;2023-06-04T12:42:14;25.90;72.30
11047;DHT22;5576;50.008;10.596;2023-06-04T12:44:40;25.70;71.60
11047;DHT22;5576;50.008;10.596;2023-06-04T12:47:07;25.90;74.60
11047;DHT22;5576;50.008;10.596;2023-06-04T12:49:33;25.70;75.40
11047;DHT22;5576;50.008;10.596;2023-06-04T12:51:59;26.00;76.20
11047;DHT22;5576;50.008;10.596;2023-06-04T12:54:25;26.20;73.90
11047;DHT22;5576;50.008;10.596;2023-06-04T12:56:52;25.40;73.30
11047;DHT22;5576;50.008;10.596;2023-06-04T12:59:18;26.00;70.80
11047;DHT22;5576;50.008;10.596;2023-06-04T13:01:44;26.10;72.90
11047;DHT22;5576;50.008;10.596;2023-06-04T13:04:10;26.00;71.70
11047;DHT22;5576;50.008;10.596;2023-06-04T13:06:35;25.80;72.40
11047;DHT22;5576;50.008;10.596;2023-06-04T13:09:04;25.90;72.90
11047;DHT22;5576;50.008;10.596;2023-06-04T13:11:37;25.90;73.60
11047;DHT22;5576;50.008;10.596;2023-06-04T13:14:03;25.90;72.30
11047;DHT22;5576;50.008;10.596;2023-06-04T13:16:29;22.80;70.40
11047;DHT22;5576;50.008;10.596;2023-06-04T13:18:55;26.10;73.60
11047;DHT22;5576;50.008;10.596;2023-06-04T13:21:20;26.40;74.10
11047;DHT22;5576;50.008;10.596;2023-06-04T13:23:46;26.30;69.90
11047;DHT22;5576;50.008;10.596;2023-06-04T13:26:12;26.20;69.00
11047;DHT22;5576;50.008;10.596;2023-06-04T13:28:38;25.50;67.30
11047;DHT22;5576;50.008;10.596;2023-06-04T13:31:04;26.10;66.80
11047;DHT22;5576;50.008;10.596;2023-06-04T13:33:29;23.30;67.10
11047;DHT22;5576;50.008;10.596;2023-06-04T13:35:55;25.90;70.10
11047;DHT22;5576;50.008;10.596;2023-06-04T13:38:21;25.90;71.60
11047;DHT22;5576;50.008;10.596;2023-06-04T13:40:46;29.40;73.10
11047;DHT22;5576;50.008;10.596;2023-06-04T13:43:12;26.10;69.10
11047;DHT22;5576;50.008;10.596;2023-06-04T13:45:38;26.20;73.20
11047;DHT22;5576;50.008;10.596;2023-06-04T13:48:05;26.30;72.80
11047;DHT22;5576;50.008;10.596;2023-06-04T13:50:33;26.60;72.80
11047;DHT22;5576;50.008;10.596;2023-06-04T13:52:59;26.50;70.80
11047;DHT22;5576;50.008;10.596;2023-06-04T13:55:24;23.40;69.60
11047;DHT22;5576;50.008;10.596;2023-06-04T13:57:50;25.80;72.60
11047;DHT22;5576;50.008;10.596;2023-06-04T14:00:16;26.80;72.70
11047;DHT22;5576;50.008;10.596;2023-06-04T14:02:42;26.40;70.20
11047;DHT22;5576;50.008;10.596;2023-06-04T14:07:42;26.30;73.60
11047;DHT22;5576;50.008;10.596;2023-06-04T14:10:10;26.40;74.90
11047;DHT22;5576;50.008;10.596;2023-06-04T14:12:38;26.90;72.00
11047;DHT22;5576;50.008;10.596;2023-06-04T14:15:06;27.00;72.90
11047;DHT22;5576;50.008;10.596;2023-06-04T14:17:32;27.30;72.70
11047;DHT22;5576;50.008;10.596;2023-06-04T14:20:00;27.20;73.20
11047;DHT22;5576;50.008;10.596;2023-06-04T14:22:25;27.40;72.10
11047;DHT22;5576;50.008;10.596;2023-06-04T14:24:51;27.50;73.40
11047;DHT22;5576;50.008;10.596;2023-06-04T14:27:17;27.30;73.10
11047;DHT22;5576;50.008;10.596;2023-06-04T14:29:42;27.40;73.00
11047;DHT22;5576;50.008;10.596;2023-06-04T14:32:08;27.60;70.70
11047;DHT22;5576;50.008;10.596;2023-06-04T14:34:34;27.70;71.60
11047;DHT22;5576;50.008;10.596;2023-06-04T14:37:00;27.70;73.70
11047;DHT22;5576;50.008;10.596;2023-06-04T14:39:27;27.50;72.30
11047;DHT22;5576;50.008;10.596;2023-06-04T14:41:53;27.60;72.30
11047;DHT22;5576;50.008;10.596;2023-06-04T14:44:19;27.70;72.40
11047;DHT22;5576;50.008;10.596;2023-06-04T14:46:45;27.50;72.10
11047;DHT22;5576;50.008;10.596;2023-06-04T14:49:11;28.60;73.80
11047;DHT22;5576;50.008;10.596;2023-06-04T14:51:37;27.60;71.80
11047;DHT22;5576;50.008;10.596;2023-06-04T14:54:03;27.50;72.40
11047;DHT22;5576;50.008;10.596;2023-06-04T14:56:28;27.60;69.40
11047;DHT22;5576;50.008;10.596;2023-06-04T14:58:56;27.60;70.60
11047;DHT22;5576;50.008;10.596;2023-06-04T15:01:22;27.60;72.50
11047;DHT22;5576;50.008;10.596;2023-06-04T15:03:49;28.00;69.00
11047;DHT22;5576;50.008;10.596;2023-06-04T15:06:16;27.60;70.60
11047;DHT22;5576;50.008;10.596;2023-06-04T15:08:41;27.60;70.20
11047;DHT22;5576;50.008;10.596;2023-06-04T15:11:07;28.00;70.50
11047;DHT22;5576;50.008;10.596;2023-06-04T15:13:33;27.50;70.00
11047;DHT22;5576;50.008;10.596;2023-06-04T15:15:58;27.30;70.50
11047;DHT22;5576;50.008;10.596;2023-06-04T15:18:24;30.20;74.90
11047;DHT22;5576;50.008;10.596;2023-06-04T15:20:50;27.50;71.30
11047;DHT22;5576;50.008;10.596;2023-06-04T15:23:15;27.30;68.40
11047;DHT22;5576;50.008;10.596;2023-06-04T15:25:43;27.30;71.30
11047;DHT22;5576;50.008;10.596;2023-06-04T15:28:09;27.50;70.50
11047;DHT22;5576;50.008;10.596;2023-06-04T15:30:34;27.60;71.00
11047;DHT22;5576;50.008;10.596;2023-06-04T15:33:00;27.70;69.20
11047;DHT22;5576;50.008;10.596;2023-06-04T15:35:27;27.50;68.90
11047;DHT22;5576;50.008;10.596;2023-06-04T15:37:53;27.70;72.00